Time;durP1;ratioP1;P1;durP2;ratioP2;P2;SDS_P1;SDS_P2;PMS_P1;PMS_P2;Temp;Humidity;BMP_temperature;BMP_pressure;BME280_temperature;BME280_humidity;BME280_pressure;Samples;Min_cycle;Max_cycle;Signal;HPM_P1;HPM_P2
2022/04/07 00:01:19;;;;;;;2.60;1.13;;;;;;;7.49;82.80;92647.84;5031271;28;21747;-48
2022/04/07 00:03:46;;;;;;;1.80;0.70;;;;;;;7.42;81.99;92637.84;5030953;28;20114;-47
2022/04/07 00:06:13;;;;;;;2.85;0.88;;;;;;;7.51;82.06;92643.47;5031368;28;20091;-47
2022/04/07 00:08:40;;;;;;;2.38;1.00;;;;;;;7.56;81.57;92656.59;5031793;28;20061;-52
2022/04/07 00:11:08;;;;;;;2.20;0.98;;;;;;;7.52;81.54;92645.00;5030922;28;20053;-46
2022/04/07 00:13:35;;;;;;;2.50;0.90;;;;;;;7.54;81.26;92648.06;5031543;28;20041;-51
2022/04/07 00:16:08;;;;;;;4.68;1.35;;;;;;;7.49;81.27;92643.16;5031098;28;20041;-46
2022/04/07 00:18:35;;;;;;;3.97;1.23;;;;;;;7.53;82.01;92645.78;5030089;28;20053;-46
2022/04/07 00:21:06;;;;;;;4.35;1.20;;;;;;;7.47;81.39;92642.81;5031174;28;20056;-50
2022/04/07 00:23:33;;;;;;;2.83;1.30;;;;;;;7.47;81.44;92642.81;5030228;28;20071;-49
2022/04/07 00:26:00;;;;;;;2.33;1.10;;;;;;;7.44;82.16;92642.88;5024538;28;20056;-46
2022/04/07 00:28:27;;;;;;;5.97;2.13;;;;;;;7.37;81.98;92635.63;5016913;28;20146;-49
2022/04/07 00:30:54;;;;;;;3.10;1.70;;;;;;;7.39;81.56;92635.97;5030827;28;20049;-49
2022/04/07 00:33:20;;;;;;;2.40;1.15;;;;;;;7.30;81.92;92622.16;5030117;28;20044;-53
2022/04/07 00:35:47;;;;;;;3.15;1.50;;;;;;;7.30;82.07;92627.59;5031469;28;20409;-48
2022/04/07 00:38:14;;;;;;;2.37;1.13;;;;;;;7.32;82.60;92625.22;5030863;28;20046;-50
2022/04/07 00:40:41;;;;;;;2.80;1.10;;;;;;;7.40;81.21;92632.03;5031381;28;20048;-51
2022/04/07 00:43:07;;;;;;;2.30;1.08;;;;;;;7.40;81.73;92621.13;5030756;28;20541;-51
2022/04/07 00:45:34;;;;;;;2.50;1.17;;;;;;;7.44;81.96;92623.78;5030061;28;20502;-50
2022/04/07 00:48:01;;;;;;;3.53;1.20;;;;;;;7.45;81.51;92626.09;5030858;28;20054;-54
2022/04/07 00:50:28;;;;;;;2.40;1.10;;;;;;;7.57;81.20;92628.13;5031334;28;20047;-49
2022/04/07 00:52:58;;;;;;;2.20;1.00;;;;;;;7.55;80.73;92624.28;5029217;28;20038;-47
2022/04/07 00:55:25;;;;;;;2.63;1.13;;;;;;;7.47;79.58;92636.59;5030878;28;20064;-47
2022/04/07 00:57:52;;;;;;;2.38;1.10;;;;;;;7.26;79.38;92630.41;5031093;28;20040;-45
2022/04/07 01:00:19;;;;;;;2.35;1.10;;;;;;;7.23;79.05;92625.06;5028559;28;20300;-51
2022/04/07 01:02:46;;;;;;;3.10;1.50;;;;;;;7.16;79.71;92634.94;5030951;28;20040;-51
2022/04/07 01:05:23;;;;;;;2.15;1.00;;;;;;;7.06;79.49;92638.66;5029600;28;21243;-48
2022/04/07 01:07:50;;;;;;;2.92;1.10;;;;;;;7.00;78.99;92632.19;4994051;28;20038;-50
2022/04/07 01:10:19;;;;;;;2.55;1.38;;;;;;;6.79;79.42;92625.25;5010507;28;20050;-45
2022/04/07 01:12:46;;;;;;;2.80;1.10;;;;;;;6.75;79.42;92635.47;5011046;28;20073;-51
2022/04/07 01:15:13;;;;;;;2.20;1.00;;;;;;;6.71;78.86;92623.88;5009300;28;20054;-49
2022/04/07 01:17:40;;;;;;;2.33;1.00;;;;;;;6.66;78.66;92641.50;5010944;28;20077;-50
2022/04/07 01:20:08;;;;;;;2.53;1.17;;;;;;;6.54;78.46;92620.31;5010390;28;20052;-49
2022/04/07 01:22:36;;;;;;;2.88;1.55;;;;;;;6.59;78.19;92638.91;5009749;28;20045;-50
2022/04/07 01:25:03;;;;;;;2.28;1.05;;;;;;;6.56;77.44;92618.72;5010506;28;20056;-48
2022/04/07 01:27:30;;;;;;;2.10;0.90;;;;;;;6.59;77.67;92614.38;5009588;28;20052;-47
2022/04/07 01:30:01;;;;;;;3.17;1.20;;;;;;;6.62;77.54;92621.72;5028929;28;20063;-47
2022/04/07 01:32:46;;;;;;;2.60;0.80;;;;;;;6.63;76.98;92609.63;5030568;28;20052;-52
2022/04/07 01:35:14;;;;;;;5.93;3.25;;;;;;;6.71;76.67;92619.19;5029875;28;20045;-51
2022/04/07 01:37:44;;;;;;;2.70;1.48;;;;;;;6.72;76.69;92611.75;5030459;28;20056;-45
2022/04/07 01:40:14;;;;;;;2.90;1.03;;;;;;;6.65;76.51;92614.66;5030043;28;20037;-54
2022/04/07 01:42:45;;;;;;;2.88;1.10;;;;;;;6.71;76.49;92623.88;5029637;28;20045;-50
2022/04/07 01:45:13;;;;;;;2.92;1.10;;;;;;;6.72;75.84;92620.72;5029936;28;20045;-45
2022/04/07 01:47:42;;;;;;;2.60;0.90;;;;;;;6.67;75.38;92612.28;5030223;28;20044;-46
2022/04/07 01:50:11;;;;;;;2.13;1.17;;;;;;;6.73;75.35;92624.22;5030065;28;20038;-50
2022/04/07 01:52:39;;;;;;;2.43;1.00;;;;;;;6.70;75.22;92620.38;5030346;28;20041;-46
2022/04/07 01:55:07;;;;;;;2.60;1.30;;;;;;;6.62;75.21;92616.28;5029545;28;20042;-47
2022/04/07 01:57:34;;;;;;;2.60;1.02;;;;;;;6.54;75.47;92614.88;5029920;28;20056;-49
2022/04/07 02:00:04;;;;;;;3.45;1.10;;;;;;;6.66;75.61;92614.25;5028278;28;20041;-49
2022/04/07 02:02:31;;;;;;;2.90;1.20;;;;;;;6.66;75.19;92597.88;5030103;28;20402;-51
2022/04/07 02:04:59;;;;;;;5.40;1.20;;;;;;;6.64;75.65;92604.94;5012164;28;20046;-54
2022/04/07 02:07:31;;;;;;;2.20;1.10;;;;;;;6.58;75.33;92594.53;5028905;28;20038;-48
2022/04/07 02:09:58;;;;;;;2.50;1.10;;;;;;;6.56;75.90;92593.41;5029710;28;20091;-47
2022/04/07 02:12:27;;;;;;;2.50;1.00;;;;;;;6.59;75.71;92592.56;5030193;28;20044;-47
2022/04/07 02:14:54;;;;;;;2.35;1.10;;;;;;;6.56;75.78;92601.59;5029468;28;20033;-46
2022/04/07 02:17:21;;;;;;;2.20;1.20;;;;;;;6.56;75.83;92602.38;5030067;28;20051;-48
2022/04/07 02:19:49;;;;;;;2.75;1.10;;;;;;;6.64;75.83;92605.72;5029902;28;20729;-50
2022/04/07 02:22:17;;;;;;;2.67;1.00;;;;;;;6.68;75.76;92602.91;5028170;28;20045;-51
2022/04/07 02:24:44;;;;;;;2.60;1.17;;;;;;;6.59;76.25;92592.56;5029940;28;20052;-49
2022/04/07 02:27:11;;;;;;;3.00;1.10;;;;;;;6.59;76.16;92595.31;5025117;28;20046;-50
2022/04/07 02:29:38;;;;;;;2.27;0.90;;;;;;;6.48;76.76;92590.09;5017443;28;20042;-52
2022/04/07 02:32:05;;;;;;;2.75;1.10;;;;;;;6.47;76.96;92593.22;5029428;28;20039;-45
2022/04/07 02:34:32;;;;;;;2.70;1.10;;;;;;;6.46;76.80;92586.22;5028617;28;20045;-46
2022/04/07 02:36:59;;;;;;;3.40;1.13;;;;;;;6.46;76.74;92599.84;5029043;28;20072;-46
2022/04/07 02:39:26;;;;;;;2.60;1.20;;;;;;;6.59;77.02;92582.44;5029686;28;20045;-52
2022/04/07 02:41:53;;;;;;;3.17;1.30;;;;;;;6.62;76.22;92582.78;5030033;28;20052;-51
2022/04/07 02:44:20;;;;;;;3.00;1.33;;;;;;;6.62;76.66;92590.97;5028888;28;20060;-49
2022/04/07 02:46:47;;;;;;;2.60;1.10;;;;;;;6.51;76.89;92591.97;5029723;28;20056;-46
2022/04/07 02:49:14;;;;;;;2.88;1.40;;;;;;;6.55;77.45;92589.91;5029193;28;20055;-45
2022/04/07 02:51:41;;;;;;;2.63;1.10;;;;;;;6.44;78.27;92577.72;5029359;28;20049;-52
2022/04/07 02:54:08;;;;;;;2.53;1.17;;;;;;;6.39;78.00;92584.44;5031146;28;20064;-49
2022/04/07 02:56:35;;;;;;;2.95;1.15;;;;;;;6.42;77.86;92583.59;5033198;28;20368;-49
2022/04/07 02:59:02;;;;;;;2.90;1.10;;;;;;;6.39;78.21;92571.56;5032958;28;20508;-46
2022/04/07 03:01:29;;;;;;;2.20;1.10;;;;;;;6.30;78.80;92568.66;5033104;28;20045;-46
2022/04/07 03:03:56;;;;;;;3.15;1.42;;;;;;;6.28;79.46;92567.53;5032843;28;20075;-48
2022/04/07 03:06:23;;;;;;;2.73;1.30;;;;;;;6.26;79.62;92559.81;5031778;28;20064;-47
2022/04/07 03:08:50;;;;;;;2.55;1.20;;;;;;;6.30;79.85;92563.22;5033021;28;20045;-46
2022/04/07 03:11:17;;;;;;;3.00;1.27;;;;;;;6.28;79.28;92562.88;5032520;28;20048;-52
2022/04/07 03:13:44;;;;;;;2.65;1.02;;;;;;;6.20;78.97;92562.25;5032844;28;20084;-49
2022/04/07 03:16:11;;;;;;;2.67;1.17;;;;;;;6.25;78.65;92560.22;5032487;28;20044;-46
2022/04/07 03:18:38;;;;;;;3.13;1.20;;;;;;;6.17;79.11;92557.63;5032496;28;20041;-49
2022/04/07 03:21:04;;;;;;;3.17;1.17;;;;;;;6.20;79.10;92554.06;5030995;28;20072;-49
2022/04/07 03:23:32;;;;;;;2.85;1.30;;;;;;;6.16;78.85;92555.34;5031408;28;20049;-49
2022/04/07 03:26:00;;;;;;;2.58;1.00;;;;;;;6.20;78.54;92558.75;5032088;28;20041;-47
2022/04/07 03:28:27;;;;;;;3.00;1.40;;;;;;;6.19;78.33;92557.22;5032675;28;20045;-46
2022/04/07 03:30:54;;;;;;;4.67;1.80;;;;;;;6.18;78.67;92561.13;5032332;28;20520;-51
2022/04/07 03:33:21;;;;;;;4.60;1.40;;;;;;;6.12;79.63;92555.41;5032635;28;20061;-46
2022/04/07 03:35:48;;;;;;;2.90;1.08;;;;;;;6.07;79.70;92557.84;5032571;28;20041;-45
2022/04/07 03:38:15;;;;;;;2.42;1.10;;;;;;;5.92;80.21;92544.50;5031950;28;20073;-48
2022/04/07 03:40:42;;;;;;;2.67;1.20;;;;;;;5.91;80.72;92545.66;5032438;28;20049;-48
2022/04/07 03:43:09;;;;;;;3.33;1.27;;;;;;;5.93;80.55;92546.00;5031893;28;20046;-46
2022/04/07 03:45:36;;;;;;;2.90;1.30;;;;;;;5.92;80.97;92549.94;5032208;28;20045;-51
2022/04/07 03:48:03;;;;;;;3.53;1.65;;;;;;;5.96;80.80;92544.47;5031871;28;20052;-47
2022/04/07 03:50:29;;;;;;;3.08;1.40;;;;;;;5.94;81.33;92542.13;5030963;28;20042;-51
2022/04/07 03:52:56;;;;;;;2.50;1.10;;;;;;;5.89;80.92;92537.16;5031713;28;20049;-50
2022/04/07 03:55:24;;;;;;;3.43;1.40;;;;;;;5.90;81.15;92516.91;5032071;28;20049;-46
2022/04/07 03:57:51;;;;;;;2.22;1.00;;;;;;;5.83;81.12;92514.31;5023544;28;20045;-51
2022/04/07 04:00:19;;;;;;;2.63;1.10;;;;;;;5.80;81.52;92524.09;5011690;28;20045;-48
2022/04/07 04:02:46;;;;;;;2.70;1.17;;;;;;;5.82;81.43;92525.66;5012363;28;20041;-53
2022/04/07 04:05:13;;;;;;;3.22;1.10;;;;;;;5.88;81.25;92529.41;5011102;28;20053;-55
2022/04/07 04:07:39;;;;;;;3.77;1.40;;;;;;;5.91;81.11;92526.59;5020888;28;20049;-47
2022/04/07 04:10:07;;;;;;;2.00;1.00;;;;;;;5.95;81.02;92532.00;5030880;28;20045;-51
2022/04/07 04:12:33;;;;;;;2.28;1.00;;;;;;;5.92;80.85;92524.69;5031654;28;20045;-52
2022/04/07 04:15:01;;;;;;;2.53;1.20;;;;;;;5.85;81.88;92520.13;5031503;28;20048;-46
2022/04/07 04:17:32;;;;;;;3.70;1.50;;;;;;;5.90;81.89;92530.53;5031855;28;20041;-45
2022/04/07 04:19:59;;;;;;;2.40;1.27;;;;;;;5.93;81.39;92526.19;5029769;28;20046;-49
2022/04/07 04:22:26;;;;;;;3.08;1.35;;;;;;;5.90;82.21;92513.44;5031703;28;20047;-52
2022/04/07 04:24:52;;;;;;;2.60;1.40;;;;;;;5.83;83.47;92513.56;5031668;28;20054;-46
2022/04/07 04:27:19;;;;;;;2.40;1.20;;;;;;;5.77;83.51;92514.03;5030293;28;20851;-46
2022/04/07 04:29:46;;;;;;;2.75;1.20;;;;;;;5.77;84.40;92499.66;5031107;28;20513;-46
2022/04/07 04:32:12;;;;;;;3.23;1.00;;;;;;;5.66;84.45;92505.34;5030696;28;20076;-45
2022/04/07 04:34:39;;;;;;;2.33;1.00;;;;;;;5.66;84.53;92493.69;5031200;28;20033;-52
2022/04/07 04:37:06;;;;;;;2.40;1.50;;;;;;;5.65;85.16;92495.63;5029363;28;20116;-50
2022/04/07 04:39:36;;;;;;;2.50;1.27;;;;;;;5.63;85.43;92491.78;5029929;28;20064;-51
2022/04/07 04:42:06;;;;;;;2.72;1.05;;;;;;;5.64;84.78;92501.50;5030406;28;20538;-52
2022/04/07 04:44:33;;;;;;;3.10;1.10;;;;;;;5.70;83.98;92502.56;5031491;28;20049;-53
2022/04/07 04:47:00;;;;;;;2.80;1.20;;;;;;;5.71;84.49;92504.84;5030843;28;20061;-48
2022/04/07 04:49:27;;;;;;;2.08;1.00;;;;;;;5.70;84.27;92500.59;5031189;28;20057;-50
2022/04/07 04:51:54;;;;;;;3.17;1.13;;;;;;;5.70;84.33;92506.03;5030631;28;20414;-49
2022/04/07 04:54:21;;;;;;;2.22;1.10;;;;;;;5.76;84.21;92498.16;5030842;28;20041;-47
2022/04/07 04:56:47;;;;;;;3.47;1.03;;;;;;;5.79;83.85;92492.66;5028600;28;20061;-53
2022/04/07 04:59:14;;;;;;;3.85;1.00;;;;;;;5.82;83.17;92496.47;5011491;28;20038;-53
2022/04/07 05:01:41;;;;;;;3.65;0.90;;;;;;;5.83;83.32;92480.91;5010976;28;20426;-50
2022/04/07 05:04:08;;;;;;;4.03;0.95;;;;;;;5.87;82.72;92476.91;5010316;28;20048;-47
2022/04/07 05:06:34;;;;;;;3.35;1.48;;;;;;;5.85;82.80;92468.41;5010874;28;20055;-50
2022/04/07 05:09:01;;;;;;;2.10;0.97;;;;;;;5.91;81.64;92482.28;5012424;28;20042;-50
2022/04/07 05:11:28;;;;;;;2.00;0.80;;;;;;;5.97;81.39;92473.22;5030549;28;20045;-53
2022/04/07 05:13:55;;;;;;;2.20;1.00;;;;;;;6.02;81.69;92476.63;5028914;28;20052;-49
2022/04/07 05:16:21;;;;;;;2.58;0.82;;;;;;;5.97;81.05;92470.50;5028838;28;20482;-48
2022/04/07 05:18:49;;;;;;;2.67;1.20;;;;;;;6.03;81.55;92480.91;5030121;28;20046;-46
2022/04/07 05:21:16;;;;;;;3.17;1.53;;;;;;;6.02;80.63;92480.16;5028999;28;20091;-47
2022/04/07 05:23:43;;;;;;;2.30;1.10;;;;;;;6.07;80.59;92476.16;5029087;28;20066;-47
2022/04/07 05:26:12;;;;;;;2.50;1.00;;;;;;;6.11;80.23;92469.44;5029995;28;20053;-46
2022/04/07 05:28:43;;;;;;;2.25;1.00;;;;;;;6.18;79.68;92463.06;5030253;28;20042;-48
2022/04/07 05:31:10;;;;;;;1.95;0.90;;;;;;;6.20;79.21;92450.56;5029890;28;20041;-50
2022/04/07 05:33:37;;;;;;;2.83;0.90;;;;;;;6.17;78.93;92434.28;5030428;28;20045;-46
2022/04/07 05:36:04;;;;;;;2.28;1.00;;;;;;;6.11;79.63;92436.75;5029859;28;20053;-49
2022/04/07 05:38:31;;;;;;;3.42;1.20;;;;;;;6.10;78.84;92437.94;5030214;28;20114;-47
2022/04/07 05:40:57;;;;;;;2.88;0.90;;;;;;;6.08;79.83;92431.41;5029652;28;20038;-51
2022/04/07 05:43:24;;;;;;;2.42;1.00;;;;;;;6.10;80.22;92431.75;5029099;28;20049;-51
2022/04/07 05:45:52;;;;;;;2.30;1.00;;;;;;;6.07;80.39;92430.59;5030260;28;20055;-50
2022/04/07 05:48:19;;;;;;;2.78;1.00;;;;;;;6.18;80.16;92435.84;5029047;28;20672;-52
2022/04/07 05:50:45;;;;;;;2.40;0.82;;;;;;;6.24;79.14;92447.75;5029892;28;20050;-51
2022/04/07 05:53:12;;;;;;;2.10;0.80;;;;;;;6.23;79.09;92438.03;5012128;28;20107;-47
2022/04/07 05:55:39;;;;;;;2.30;0.77;;;;;;;6.22;79.56;92439.25;5030219;28;20048;-50
2022/04/07 05:58:07;;;;;;;2.53;0.87;;;;;;;6.19;80.20;92442.81;5029336;28;20041;-47
2022/04/07 06:00:37;;;;;;;2.85;0.93;;;;;;;6.46;79.06;92447.25;5029945;28;20479;-46
2022/04/07 06:03:04;;;;;;;1.65;0.73;;;;;;;6.43;78.72;92448.13;5029706;28;20059;-46
2022/04/07 06:05:31;;;;;;;2.85;1.00;;;;;;;6.58;79.22;92457.50;5029426;28;20044;-48
2022/04/07 06:08:02;;;;;;;2.00;0.70;;;;;;;6.76;78.56;92462.50;5027594;28;20056;-48
2022/04/07 06:10:29;;;;;;;1.80;0.80;;;;;;;6.58;77.41;92447.34;5009182;28;20038;-47
2022/04/07 06:12:56;;;;;;;1.70;0.85;;;;;;;6.69;76.73;92446.31;5009672;28;20053;-47
2022/04/07 06:15:24;;;;;;;2.00;0.90;;;;;;;6.74;76.14;92443.84;5010123;28;20045;-46
2022/04/07 06:17:52;;;;;;;1.80;0.60;;;;;;;6.82;75.68;92438.97;5008540;28;20041;-52
2022/04/07 06:20:21;;;;;;;2.55;0.90;;;;;;;6.89;75.01;92417.00;5007904;28;20111;-52
2022/04/07 06:22:48;;;;;;;1.80;0.70;;;;;;;6.95;74.34;92422.69;5008917;28;20068;-47
2022/04/07 06:25:15;;;;;;;2.05;0.63;;;;;;;6.89;75.16;92424.41;5009743;28;20049;-53
2022/04/07 06:27:44;;;;;;;1.90;0.85;;;;;;;7.19;73.25;92404.16;5010224;28;20050;-53
2022/04/07 06:30:13;;;;;;;2.70;0.95;;;;;;;7.34;72.48;92393.59;5032999;28;20406;-52
2022/04/07 06:32:40;;;;;;;2.10;0.90;;;;;;;7.37;71.75;92400.94;5033583;28;20045;-48
2022/04/07 06:35:08;;;;;;;2.87;1.60;;;;;;;7.50;71.42;92400.97;5033568;28;20052;-49
2022/04/07 06:37:52;;;;;;;2.70;1.00;;;;;;;7.66;70.93;92389.97;5030226;28;20453;-52
2022/04/07 06:40:27;;;;;;;2.40;1.00;;;;;;;7.74;69.29;92393.25;5032439;28;20037;-47
2022/04/07 06:42:56;;;;;;;1.73;0.70;;;;;;;7.68;69.81;92389.53;5031479;28;20057;-50
2022/04/07 06:45:28;;;;;;;2.00;0.80;;;;;;;7.70;69.54;92384.41;5033075;28;20038;-50
2022/04/07 06:47:55;;;;;;;2.27;1.00;;;;;;;7.68;69.45;92397.72;5032746;28;20048;-49
2022/04/07 06:50:25;;;;;;;3.60;0.85;;;;;;;7.98;67.88;92380.06;5033448;28;20071;-46
2022/04/07 06:52:53;;;;;;;1.90;0.75;;;;;;;8.07;68.44;92393.06;5033530;28;20067;-46
2022/04/07 06:55:20;;;;;;;2.45;0.80;;;;;;;7.88;69.65;92390.09;5030835;28;20450;-49
2022/04/07 06:57:47;;;;;;;2.78;1.10;;;;;;;7.70;69.56;92373.47;5033032;28;20539;-45
2022/04/07 07:00:14;;;;;;;3.20;0.87;;;;;;;7.62;70.04;92372.16;5031974;28;20143;-50
2022/04/07 07:02:41;;;;;;;2.97;0.90;;;;;;;7.64;68.85;92365.06;5032120;28;20037;-50
2022/04/07 07:05:08;;;;;;;2.60;0.70;;;;;;;7.60;69.25;92373.34;5029344;28;20042;-50
2022/04/07 07:07:35;;;;;;;2.08;0.70;;;;;;;7.81;69.75;92379.41;5032081;28;20060;-52
2022/04/07 07:10:02;;;;;;;1.70;0.80;;;;;;;8.64;66.03;92368.69;5031114;28;20046;-47
2022/04/07 07:12:29;;;;;;;2.13;0.80;;;;;;;8.54;67.62;92365.09;5032846;28;20037;-47
2022/04/07 07:14:56;;;;;;;3.47;0.70;;;;;;;8.68;66.34;92370.09;5032485;28;20053;-51
2022/04/07 07:17:22;;;;;;;4.28;0.80;;;;;;;8.23;66.99;92373.06;5032272;28;20099;-49
2022/04/07 07:19:49;;;;;;;2.53;0.70;;;;;;;8.16;67.37;92379.53;5032609;28;20045;-48
2022/04/07 07:22:16;;;;;;;1.80;0.70;;;;;;;7.81;68.46;92357.56;5031195;28;20048;-52
2022/04/07 07:24:43;;;;;;;1.97;0.70;;;;;;;7.65;69.63;92368.56;5032540;28;20053;-47
2022/04/07 07:27:09;;;;;;;1.83;0.75;;;;;;;7.72;69.99;92371.09;5030873;28;20044;-46
2022/04/07 07:29:36;;;;;;;2.40;1.10;;;;;;;7.87;69.30;92364.00;5032606;28;20107;-52
2022/04/07 07:32:03;;;;;;;3.58;0.98;;;;;;;7.87;69.42;92365.94;5032106;28;20048;-51
2022/04/07 07:34:30;;;;;;;2.40;0.85;;;;;;;7.88;68.57;92353.84;5032604;28;20042;-48
2022/04/07 07:36:57;;;;;;;1.90;0.80;;;;;;;7.80;69.23;92356.00;5029389;28;20050;-45
2022/04/07 07:39:27;;;;;;;2.53;0.80;;;;;;;7.77;69.51;92371.31;5030693;28;20055;-51
2022/04/07 07:41:54;;;;;;;4.13;1.00;;;;;;;7.82;69.79;92355.59;5031411;28;20043;-52
2022/04/07 07:44:21;;;;;;;2.65;1.00;;;;;;;7.89;69.17;92364.34;5032291;28;20038;-46
2022/04/07 07:46:47;;;;;;;3.28;0.80;;;;;;;7.91;68.41;92355.72;5032187;28;20057;-49
2022/04/07 07:49:14;;;;;;;3.33;0.70;;;;;;;7.90;69.35;92344.00;5031896;28;20050;-51
2022/04/07 07:51:41;;;;;;;3.20;0.70;;;;;;;7.96;68.26;92364.09;5032074;28;20043;-52
2022/04/07 07:54:08;;;;;;;2.17;0.80;;;;;;;7.77;69.04;92370.56;5031357;28;20050;-49
2022/04/07 07:56:35;;;;;;;3.75;0.82;;;;;;;7.77;70.23;92357.66;5031886;28;20047;-47
2022/04/07 07:59:06;;;;;;;3.63;0.70;;;;;;;7.70;70.75;92352.41;5030416;28;20045;-46
2022/04/07 08:01:33;;;;;;;2.43;0.70;;;;;;;7.89;69.97;92353.41;5032014;28;20080;-48
2022/04/07 08:04:00;;;;;;;1.73;0.70;;;;;;;7.71;69.70;92347.72;5031473;28;20041;-46
2022/04/07 08:06:27;;;;;;;3.05;0.90;;;;;;;7.67;71.62;92349.78;5031896;28;20428;-50
2022/04/07 08:08:54;;;;;;;2.08;0.70;;;;;;;7.76;70.64;92350.66;5031076;28;20037;-53
2022/04/07 08:11:21;;;;;;;3.20;0.90;;;;;;;7.83;70.35;92348.91;5032021;28;20432;-47
2022/04/07 08:13:48;;;;;;;2.20;0.80;;;;;;;7.86;70.22;92345.31;5032116;28;20402;-51
2022/04/07 08:16:14;;;;;;;7.22;1.15;;;;;;;8.09;69.51;92327.81;5031354;28;20045;-53
2022/04/07 08:18:41;;;;;;;5.40;1.10;;;;;;;8.11;69.93;92322.69;5031177;28;20410;-46
2022/04/07 08:21:08;;;;;;;3.92;0.90;;;;;;;8.03;69.35;92315.91;5031475;28;20045;-49
2022/04/07 08:23:35;;;;;;;3.58;0.90;;;;;;;8.27;68.79;92314.38;5030558;28;20114;-54
2022/04/07 08:26:01;;;;;;;4.80;1.07;;;;;;;8.11;69.71;92314.47;5031256;28;20037;-50
2022/04/07 08:28:28;;;;;;;12.30;1.70;;;;;;;8.14;69.48;92317.09;5031309;28;20045;-49
2022/04/07 08:30:55;;;;;;;5.00;1.33;;;;;;;8.23;69.54;92308.25;5029732;28;20491;-49
2022/04/07 08:33:22;;;;;;;4.20;0.90;;;;;;;8.35;70.75;92309.41;5031583;28;20042;-48
2022/04/07 08:35:49;;;;;;;2.55;0.80;;;;;;;8.50;69.10;92309.75;5030422;28;20049;-49
2022/04/07 08:38:15;;;;;;;3.80;0.80;;;;;;;8.73;69.40;92306.63;5013375;28;20048;-55
2022/04/07 08:40:45;;;;;;;3.35;0.90;;;;;;;9.10;66.83;92298.69;5027785;28;20061;-49
2022/04/07 08:43:12;;;;;;;2.55;0.70;;;;;;;9.38;65.84;92283.22;5030792;28;20047;-51
2022/04/07 08:45:42;;;;;;;2.80;0.93;;;;;;;8.97;66.96;92292.50;5029745;28;20037;-55
2022/04/07 08:48:11;;;;;;;1.90;0.77;;;;;;;8.84;68.03;92289.09;5029120;28;20048;-49
2022/04/07 08:50:42;;;;;;;3.23;0.90;;;;;;;8.81;67.68;92296.19;5030037;28;20056;-54
2022/04/07 08:53:11;;;;;;;1.80;0.73;;;;;;;9.11;66.99;92296.72;5030619;28;20039;-45
2022/04/07 08:55:39;;;;;;;2.90;0.93;;;;;;;9.08;66.96;92303.09;5029886;28;20413;-47
2022/04/07 08:58:05;;;;;;;1.60;0.60;;;;;;;8.84;68.27;92275.41;5028254;28;20042;-49
2022/04/07 09:00:32;;;;;;;1.70;0.70;;;;;;;9.08;68.32;92292.16;5029850;28;20079;-48
2022/04/07 09:03:00;;;;;;;1.63;0.60;;;;;;;8.87;69.23;92275.25;5029275;28;20388;-53
2022/04/07 09:05:31;;;;;;;1.55;0.70;;;;;;;8.56;71.18;92288.84;5031103;28;20046;-45
2022/04/07 09:08:03;;;;;;;1.60;0.60;;;;;;;8.23;74.59;92263.75;5030379;28;20057;-55
2022/04/07 09:10:29;;;;;;;2.08;0.80;;;;;;;8.58;71.98;92245.41;5030906;28;20037;-49
2022/04/07 09:13:03;;;;;;;1.80;0.80;;;;;;;8.83;72.06;92251.97;5029107;28;20047;-49
2022/04/07 09:15:30;;;;;;;2.17;0.57;;;;;;;9.38;69.82;92263.28;5030663;28;20038;-50
2022/04/07 09:18:00;;;;;;;2.00;0.80;;;;;;;9.83;68.82;92261.19;5012711;28;20041;-51
2022/04/07 09:20:27;;;;;;;1.40;0.45;;;;;;;10.75;64.75;92239.47;5029642;28;20046;-54
2022/04/07 09:22:56;;;;;;;1.60;0.70;;;;;;;11.25;60.93;92256.50;5030210;28;20041;-54
2022/04/07 09:25:23;;;;;;;1.50;0.60;;;;;;;12.58;58.07;92253.81;5030370;28;20052;-53
2022/04/07 09:27:50;;;;;;;1.87;0.57;;;;;;;13.10;56.55;92234.31;5029295;28;20044;-50
2022/04/07 09:30:16;;;;;;;1.98;0.50;;;;;;;11.09;60.92;92238.38;5028581;28;20049;-46
2022/04/07 09:32:44;;;;;;;2.28;0.55;;;;;;;10.51;62.42;92236.56;5030337;28;20052;-48
2022/04/07 09:35:12;;;;;;;4.30;0.60;;;;;;;10.30;63.34;92246.41;5028800;28;20056;-47
2022/04/07 09:37:40;;;;;;;3.28;1.77;;;;;;;11.04;60.89;92263.66;5030437;28;20390;-52
2022/04/07 09:40:18;;;;;;;1.90;0.50;;;;;;;10.56;62.12;92233.19;5028757;28;20045;-50
2022/04/07 09:42:56;;;;;;;1.50;0.60;;;;;;;10.69;61.68;92255.00;5029156;28;20064;-53
2022/04/07 09:45:23;;;;;;;2.08;0.50;;;;;;;10.30;63.79;92260.91;5029685;28;20041;-51
2022/04/07 09:47:50;;;;;;;2.85;0.50;;;;;;;10.19;63.70;92258.56;5030373;28;20042;-47
2022/04/07 09:50:22;;;;;;;1.50;0.40;;;;;;;10.11;65.12;92264.78;5029748;28;20072;-50
2022/04/07 09:53:09;;;;;;;3.17;0.60;;;;;;;9.55;70.51;92256.34;5030179;28;20128;-48
2022/04/07 09:55:40;;;;;;;3.20;0.65;;;;;;;9.42;69.55;92269.41;5029497;28;20044;-53
2022/04/07 09:58:10;;;;;;;3.75;1.00;;;;;;;9.57;68.87;92255.91;5029494;28;20053;-47
2022/04/07 10:00:37;;;;;;;1.40;0.50;;;;;;;9.36;69.49;92254.75;5028707;28;20077;-48
2022/04/07 10:03:05;;;;;;;1.42;0.60;;;;;;;8.89;71.29;92269.34;5028519;28;20049;-47
2022/04/07 10:05:32;;;;;;;2.10;0.60;;;;;;;9.08;72.44;92262.06;5034055;28;20071;-48
2022/04/07 10:07:59;;;;;;;2.30;0.52;;;;;;;9.97;68.00;92244.94;5033436;28;20041;-49
2022/04/07 10:10:26;;;;;;;1.83;0.60;;;;;;;10.35;67.04;92240.34;5033877;28;20045;-55
2022/04/07 10:12:57;;;;;;;1.38;0.55;;;;;;;10.41;65.18;92232.28;5033977;28;20037;-52
2022/04/07 10:15:24;;;;;;;1.80;0.70;;;;;;;10.37;65.39;92252.38;5033120;28;20041;-49
2022/04/07 10:17:52;;;;;;;1.40;0.43;;;;;;;10.48;63.91;92210.78;5033984;28;20050;-47
2022/04/07 10:20:33;;;;;;;1.67;0.60;;;;;;;11.76;62.04;92228.25;5032615;28;22545;-47
2022/04/07 10:23:09;;;;;;;1.38;0.50;;;;;;;11.96;60.39;92224.97;5033284;28;20037;-49
2022/04/07 10:25:45;;;;;;;1.70;0.50;;;;;;;11.72;60.85;92221.41;5033697;28;20118;-51
2022/04/07 10:28:12;;;;;;;1.73;0.50;;;;;;;10.78;62.97;92205.59;5033189;28;20046;-51
2022/04/07 10:30:57;;;;;;;1.60;0.50;;;;;;;10.98;62.34;92197.66;5033871;28;20493;-46
2022/04/07 10:33:48;;;;;;;1.40;0.50;;;;;;;11.08;63.48;92198.41;5032919;28;20376;-47
2022/04/07 10:36:23;;;;;;;2.15;0.60;;;;;;;11.28;62.68;92197.88;5032740;28;20558;-47
2022/04/07 10:38:51;;;;;;;3.88;1.70;;;;;;;11.26;62.52;92192.09;5033501;28;20045;-47
2022/04/07 10:41:37;;;;;;;8.88;3.70;;;;;;;10.57;65.35;92188.09;5033269;28;20037;-48
2022/04/07 10:44:20;;;;;;;4.90;2.10;;;;;;;10.32;65.96;92157.03;5032092;28;20048;-48
2022/04/07 10:46:47;;;;;;;3.58;1.75;;;;;;;11.96;61.00;92178.25;5033608;28;20048;-53
2022/04/07 10:49:24;;;;;;;2.70;1.30;;;;;;;12.86;58.83;92168.28;5031973;28;20049;-52
2022/04/07 10:51:54;;;;;;;1.67;0.60;;;;;;;13.11;56.44;92146.91;5033844;28;20103;-50
2022/04/07 10:54:22;;;;;;;3.47;0.60;;;;;;;13.27;57.15;92171.22;5032298;28;20734;-53
2022/04/07 10:56:51;;;;;;;3.60;0.60;;;;;;;13.19;56.02;92151.56;5030658;28;20057;-55
2022/04/07 10:59:24;;;;;;;1.50;0.60;;;;;;;12.90;56.03;92129.56;5019431;28;20050;-50
2022/04/07 11:02:00;;;;;;;2.30;0.70;;;;;;;13.14;55.22;92141.22;5033381;28;20050;-51
2022/04/07 11:04:27;;;;;;;4.18;0.60;;;;;;;12.75;55.98;92113.00;5032282;28;20044;-51
2022/04/07 11:07:15;;;;;;;2.75;0.40;;;;;;;12.39;57.96;92118.38;5032613;28;20057;-48
2022/04/07 11:09:57;;;;;;;5.53;0.90;;;;;;;12.21;57.24;92126.00;5032996;28;20041;-49
2022/04/07 11:12:37;;;;;;;2.08;0.70;;;;;;;12.30;57.73;92118.44;5032164;28;20775;-50
2022/04/07 11:15:04;;;;;;;7.07;0.80;;;;;;;11.92;57.85;92141.94;5032733;28;20042;-53
2022/04/07 11:17:53;;;;;;;1.80;0.60;;;;;;;11.87;57.81;92141.78;5032991;28;20388;-49
2022/04/07 11:20:24;;;;;;;7.47;0.70;;;;;;;11.70;58.35;92144.91;5032611;28;20041;-47
2022/04/07 11:23:07;;;;;;;4.30;1.07;;;;;;;12.44;58.00;92130.72;5033033;28;20057;-51
2022/04/07 11:25:36;;;;;;;3.42;0.60;;;;;;;11.82;59.85;92137.69;5031991;28;20041;-54
2022/04/07 11:28:04;;;;;;;2.05;0.50;;;;;;;10.34;65.03;92159.28;5032239;28;20044;-53
2022/04/07 11:30:37;;;;;;;2.60;0.60;;;;;;;9.49;68.60;92147.88;5032634;28;20037;-49
2022/04/07 11:33:28;;;;;;;2.88;0.70;;;;;;;9.22;71.46;92184.13;5032060;28;20079;-50
2022/04/07 11:35:58;;;;;;;2.20;0.80;;;;;;;8.73;75.29;92164.41;5032290;28;20483;-48
2022/04/07 11:38:36;;;;;;;3.10;0.77;;;;;;;8.30;79.03;92176.84;5032536;28;20068;-50
2022/04/07 11:41:07;;;;;;;2.70;0.70;;;;;;;8.08;78.50;92173.31;5032237;28;20410;-50
2022/04/07 11:43:37;;;;;;;3.40;0.80;;;;;;;7.88;81.65;92174.34;5032491;28;20099;-51
2022/04/07 11:46:07;;;;;;;2.53;0.65;;;;;;;7.79;80.92;92169.56;5031690;28;20038;-50
2022/04/07 11:48:55;;;;;;;1.67;0.80;;;;;;;7.75;83.13;92190.00;5031886;28;20051;-47